KMLI/MLI METAR and TAF weather

Enter ICAO airport designator
Station Type Date Time Source
KMLI METAR 2020/09/20 10:52 UTC NOAA

KMLI 201052Z 00000KT 10SM CLR 07/05 A3034 RMK AO2 SLP274 T00670050


Station Type Date Time Source
KMLI Decoded METAR 2020/09/20 10:52 UTC NOAA

MOLINE QUAD-CITY AIRPORT, IL, United States (KMLI) 41-27N 90-31W 184M
Sep 20, 2020 - 06:52 AM EDT / 2020.09.20 1052 UTC
Wind: Calm:0
Visibility: 10 mile(s):0
Sky conditions: clear
Temperature: 44.1 F (6.7 C)
Dew Point: 41.0 F (5.0 C)
Relative Humidity: 88%
Pressure (altimeter): 30.34 in. Hg (1027 hPa)
ob: KMLI 201052Z 00000KT 10SM CLR 07/05 A3034 RMK AO2 SLP274 T00670050
cycle: 11

Station Type Date Time Source
KMLI TAF 2020/09/20 12:22 UTC NOAA

TAF KMLI 201120Z 2012/2112 12004KT P6SM SCT200
FM201500 14010KT P6SM BKN200
FM210000 13006KT P6SM BKN200

Example: see airport list